VLG3053 GCLP-LEZL
Flight info
| Callsign | VLG3053 |
|---|---|
| Flight time | 1h 41m |
| Altitude | 36000 |
| Route | KORAL UG5 SONSO DCT NIRAL UN871 ADUBI DCT VJF |
| Aircraft | A320/M-SDE3FGHIRWY/LB1 |
Departure
| Time | 2026-05-07 19:40 |
|---|---|
| Airport | Gran Canaria Airport (GCLP) |
Arrival
| Time | 2026-05-07 21:22 |
|---|---|
| Airport | Seville Airport (LEZL) |
| Time | Latitude | Longitude | Altitude | Speed | Heading |
|---|---|---|---|---|---|
| 2026-05-07 18:47 | 27.93898 | -15.38800 | 89 ft | 0 kts | 291° |
| 2026-05-07 19:24 | 27.93896 | -15.38797 | 85 ft | 3 kts | 291° |
| 2026-05-07 19:25 | 27.93888 | -15.38773 | 89 ft | 3 kts | 291° |
| 2026-05-07 19:25 | 27.93881 | -15.38752 | 88 ft | 3 kts | 291° |
| 2026-05-07 19:25 | 27.93876 | -15.38729 | 87 ft | 3 kts | 260° |
| 2026-05-07 19:25 | 27.93884 | -15.38710 | 88 ft | 3 kts | 213° |
| 2026-05-07 19:26 | 27.93900 | -15.38701 | 87 ft | 0 kts | 201° |
| 2026-05-07 19:34 | 27.93898 | -15.38702 | 87 ft | 1 kts | 201° |
| 2026-05-07 19:34 | 27.93864 | -15.38717 | 88 ft | 9 kts | 202° |
| 2026-05-07 19:34 | 27.93797 | -15.38747 | 86 ft | 12 kts | 201° |
| 2026-05-07 19:35 | 27.93706 | -15.38787 | 88 ft | 16 kts | 201° |
| 2026-05-07 19:35 | 27.93596 | -15.38835 | 87 ft | 18 kts | 201° |
| 2026-05-07 19:35 | 27.93488 | -15.38876 | 83 ft | 14 kts | 190° |
| 2026-05-07 19:35 | 27.93429 | -15.38809 | 81 ft | 15 kts | 110° |
| 2026-05-07 19:36 | 27.93350 | -15.38779 | 69 ft | 16 kts | 201° |
| 2026-05-07 19:36 | 27.93236 | -15.38829 | 68 ft | 19 kts | 201° |
| 2026-05-07 19:36 | 27.93109 | -15.38894 | 72 ft | 21 kts | 203° |
| 2026-05-07 19:36 | 27.92970 | -15.38951 | 72 ft | 22 kts | 201° |
| 2026-05-07 19:37 | 27.92823 | -15.39017 | 86 ft | 23 kts | 201° |
| 2026-05-07 19:37 | 27.92678 | -15.39082 | 89 ft | 22 kts | 202° |
| 2026-05-07 19:37 | 27.92537 | -15.39145 | 93 ft | 22 kts | 202° |
| 2026-05-07 19:37 | 27.92389 | -15.39211 | 96 ft | 23 kts | 201° |
| 2026-05-07 19:38 | 27.92254 | -15.39270 | 99 ft | 17 kts | 202° |
| 2026-05-07 19:38 | 27.92134 | -15.39307 | 97 ft | 20 kts | 177° |
| 2026-05-07 19:38 | 27.92038 | -15.39299 | 92 ft | 13 kts | 177° |
| 2026-05-07 19:38 | 27.91937 | -15.39287 | 88 ft | 16 kts | 159° |
| 2026-05-07 19:39 | 27.91928 | -15.39213 | 89 ft | 13 kts | 26° |
| 2026-05-07 19:39 | 27.91943 | -15.39207 | 85 ft | 0 kts | 20° |
| 2026-05-07 19:39 | 27.91956 | -15.39202 | 86 ft | 6 kts | 19° |
| 2026-05-07 19:39 | 27.92126 | -15.39128 | 84 ft | 57 kts | 21° |
| 2026-05-07 19:40 | 27.92690 | -15.38880 | 65 ft | 114 kts | 21° |
| 2026-05-07 19:40 | 27.93571 | -15.38488 | 67 ft | 155 kts | 21° |
| 2026-05-07 19:40 | 27.94585 | -15.38012 | 616 ft | 157 kts | 20° |
| 2026-05-07 19:40 | 27.95597 | -15.37558 | 1145 ft | 160 kts | 21° |
| 2026-05-07 19:41 | 27.96655 | -15.37100 | 1523 ft | 170 kts | 20° |
| 2026-05-07 19:41 | 27.97837 | -15.36593 | 1756 ft | 193 kts | 21° |
| 2026-05-07 19:41 | 27.99159 | -15.36028 | 2026 ft | 215 kts | 20° |
| 2026-05-07 19:41 | 28.00640 | -15.35399 | 2383 ft | 239 kts | 20° |
| 2026-05-07 19:42 | 28.02237 | -15.34716 | 3055 ft | 250 kts | 21° |
| 2026-05-07 19:42 | 28.03702 | -15.33607 | 3829 ft | 262 kts | 44° |
| 2026-05-07 19:42 | 28.04823 | -15.31939 | 4621 ft | 270 kts | 52° |
| 2026-05-07 19:42 | 28.05932 | -15.30185 | 5395 ft | 277 kts | 52° |
| 2026-05-07 19:43 | 28.07051 | -15.28399 | 6259 ft | 280 kts | 50° |
| 2026-05-07 19:43 | 28.08181 | -15.26591 | 7049 ft | 283 kts | 50° |
| 2026-05-07 19:43 | 28.09329 | -15.24758 | 7806 ft | 288 kts | 50° |
| 2026-05-07 19:43 | 28.10503 | -15.22894 | 8543 ft | 294 kts | 50° |
| 2026-05-07 19:44 | 28.11701 | -15.20996 | 9290 ft | 298 kts | 50° |
| 2026-05-07 19:44 | 28.12915 | -15.19069 | 10041 ft | 303 kts | 50° |
| 2026-05-07 19:44 | 28.14168 | -15.17083 | 10420 ft | 320 kts | 50° |
| 2026-05-07 19:44 | 28.15512 | -15.14958 | 10578 ft | 343 kts | 50° |
| 2026-05-07 19:45 | 28.16935 | -15.12705 | 10918 ft | 358 kts | 51° |
| 2026-05-07 19:45 | 28.18391 | -15.10385 | 11481 ft | 364 kts | 51° |
| 2026-05-07 19:45 | 28.19866 | -15.08026 | 12071 ft | 370 kts | 51° |
| 2026-05-07 19:45 | 28.21365 | -15.05631 | 12636 ft | 375 kts | 51° |
| 2026-05-07 19:46 | 28.22886 | -15.03203 | 13220 ft | 380 kts | 51° |
| 2026-05-07 19:46 | 28.24410 | -15.00774 | 13771 ft | 386 kts | 51° |
| 2026-05-07 19:46 | 28.25974 | -14.98279 | 14268 ft | 391 kts | 51° |
| 2026-05-07 19:46 | 28.27556 | -14.95750 | 14772 ft | 395 kts | 51° |
| 2026-05-07 19:47 | 28.29154 | -14.93190 | 15288 ft | 400 kts | 52° |
| 2026-05-07 19:47 | 28.30774 | -14.90595 | 15754 ft | 405 kts | 52° |
| 2026-05-07 19:47 | 28.32412 | -14.87970 | 16239 ft | 410 kts | 52° |
| 2026-05-07 19:47 | 28.34071 | -14.85316 | 16739 ft | 414 kts | 52° |
| 2026-05-07 19:48 | 28.35747 | -14.82635 | 17242 ft | 419 kts | 52° |
| 2026-05-07 19:48 | 28.37438 | -14.79925 | 17744 ft | 423 kts | 52° |
| 2026-05-07 19:48 | 28.39147 | -14.77186 | 18239 ft | 427 kts | 52° |
| 2026-05-07 19:48 | 28.40877 | -14.74419 | 18689 ft | 431 kts | 52° |
| 2026-05-07 19:49 | 28.42617 | -14.71625 | 19147 ft | 435 kts | 52° |
| 2026-05-07 19:49 | 28.44370 | -14.68806 | 19610 ft | 439 kts | 52° |
| 2026-05-07 19:49 | 28.46139 | -14.65961 | 20067 ft | 443 kts | 52° |
| 2026-05-07 19:49 | 28.47928 | -14.63087 | 20492 ft | 447 kts | 52° |
| 2026-05-07 19:50 | 28.49731 | -14.60189 | 20930 ft | 451 kts | 52° |
| 2026-05-07 19:50 | 28.51543 | -14.57263 | 21365 ft | 454 kts | 52° |
| 2026-05-07 19:50 | 28.53371 | -14.54310 | 21769 ft | 458 kts | 52° |
| 2026-05-07 19:50 | 28.55212 | -14.51335 | 22166 ft | 462 kts | 52° |
| 2026-05-07 19:51 | 28.57070 | -14.48332 | 22570 ft | 465 kts | 52° |
| 2026-05-07 19:51 | 28.58940 | -14.45312 | 22964 ft | 469 kts | 52° |
| 2026-05-07 19:51 | 28.60824 | -14.42271 | 23378 ft | 472 kts | 52° |
| 2026-05-07 19:51 | 28.62723 | -14.39203 | 23742 ft | 476 kts | 52° |
| 2026-05-07 19:52 | 28.64634 | -14.36115 | 24080 ft | 479 kts | 52° |
| 2026-05-07 19:52 | 28.66555 | -14.33006 | 24423 ft | 481 kts | 52° |
| 2026-05-07 19:52 | 28.68482 | -14.29878 | 24755 ft | 484 kts | 52° |
| 2026-05-07 19:52 | 28.70419 | -14.26729 | 25090 ft | 487 kts | 52° |
| 2026-05-07 19:53 | 28.72366 | -14.23565 | 25423 ft | 489 kts | 52° |
| 2026-05-07 19:53 | 28.74325 | -14.20382 | 25738 ft | 492 kts | 52° |
| 2026-05-07 19:53 | 28.76295 | -14.17180 | 26057 ft | 495 kts | 52° |
| 2026-05-07 19:53 | 28.78282 | -14.13963 | 26383 ft | 497 kts | 52° |
| 2026-05-07 19:54 | 28.80281 | -14.10733 | 26696 ft | 501 kts | 52° |
| 2026-05-07 19:54 | 28.82300 | -14.07472 | 26972 ft | 505 kts | 52° |
| 2026-05-07 19:54 | 28.84330 | -14.04196 | 27281 ft | 508 kts | 52° |
| 2026-05-07 19:54 | 28.86373 | -14.00897 | 27594 ft | 510 kts | 51° |
| 2026-05-07 19:55 | 28.88425 | -13.97583 | 27911 ft | 513 kts | 51° |
| 2026-05-07 19:55 | 28.90487 | -13.94245 | 28227 ft | 516 kts | 51° |
| 2026-05-07 19:55 | 28.92552 | -13.90889 | 28544 ft | 518 kts | 52° |
| 2026-05-07 19:55 | 28.94626 | -13.87505 | 28846 ft | 521 kts | 52° |
| 2026-05-07 19:56 | 28.96708 | -13.84105 | 29139 ft | 524 kts | 52° |
| 2026-05-07 19:56 | 28.98796 | -13.80695 | 29528 ft | 524 kts | 52° |
| 2026-05-07 19:56 | 29.00886 | -13.77282 | 29990 ft | 524 kts | 52° |
| 2026-05-07 19:56 | 29.02972 | -13.73877 | 30378 ft | 523 kts | 52° |
| 2026-05-07 19:57 | 29.05058 | -13.70475 | 30744 ft | 523 kts | 52° |
| 2026-05-07 19:57 | 29.07147 | -13.67077 | 31128 ft | 522 kts | 51° |
| 2026-05-07 19:57 | 29.09232 | -13.63683 | 31506 ft | 521 kts | 52° |
| 2026-05-07 19:57 | 29.11309 | -13.60292 | 31896 ft | 521 kts | 51° |
| 2026-05-07 19:58 | 29.13384 | -13.56897 | 32321 ft | 520 kts | 51° |
| 2026-05-07 19:58 | 29.15458 | -13.53500 | 32638 ft | 522 kts | 51° |
| 2026-05-07 19:58 | 29.17536 | -13.50093 | 33007 ft | 522 kts | 51° |
| 2026-05-07 19:58 | 29.19611 | -13.46686 | 33409 ft | 522 kts | 51° |
| 2026-05-07 19:59 | 29.21681 | -13.43279 | 33805 ft | 521 kts | 51° |
| 2026-05-07 19:59 | 29.23749 | -13.39872 | 34162 ft | 521 kts | 51° |
| 2026-05-07 19:59 | 29.25813 | -13.36469 | 34490 ft | 520 kts | 51° |
| 2026-05-07 19:59 | 29.27878 | -13.33071 | 34811 ft | 519 kts | 51° |
| 2026-05-07 20:00 | 29.29939 | -13.29679 | 35131 ft | 518 kts | 51° |
| 2026-05-07 20:00 | 29.31996 | -13.26294 | 35433 ft | 517 kts | 51° |
| 2026-05-07 20:00 | 29.34047 | -13.22913 | 35742 ft | 516 kts | 51° |
| 2026-05-07 20:00 | 29.36095 | -13.19533 | 35957 ft | 516 kts | 51° |
| 2026-05-07 20:01 | 29.40197 | -13.12764 | 35985 ft | 524 kts | 51° |
| 2026-05-07 20:01 | 29.44356 | -13.05879 | 36002 ft | 525 kts | 51° |
| 2026-05-07 20:02 | 29.48504 | -12.98979 | 36012 ft | 528 kts | 51° |
| 2026-05-07 20:02 | 29.52680 | -12.92022 | 36006 ft | 530 kts | 51° |
| 2026-05-07 20:03 | 29.56871 | -12.85044 | 36003 ft | 531 kts | 51° |
| 2026-05-07 20:03 | 29.61063 | -12.78064 | 36006 ft | 531 kts | 51° |
| 2026-05-07 20:04 | 29.64541 | -12.72252 | 36007 ft | 530 kts | 51° |
| 2026-05-07 20:04 | 29.68711 | -12.65261 | 36014 ft | 530 kts | 51° |
| 2026-05-07 20:05 | 29.72879 | -12.58273 | 36019 ft | 529 kts | 51° |
| 2026-05-07 20:05 | 29.77044 | -12.51285 | 36017 ft | 529 kts | 51° |
| 2026-05-07 20:06 | 29.81190 | -12.44283 | 36069 ft | 530 kts | 52° |
| 2026-05-07 20:06 | 29.85337 | -12.37239 | 35990 ft | 531 kts | 51° |
| 2026-05-07 20:07 | 29.87646 | -12.33966 | 35982 ft | 522 kts | 38° |
| 2026-05-07 20:07 | 29.90386 | -12.31277 | 35988 ft | 516 kts | 32° |
| 2026-05-07 20:07 | 29.95985 | -12.26084 | 35994 ft | 517 kts | 32° |
| 2026-05-07 20:08 | 30.01603 | -12.20890 | 35987 ft | 518 kts | 32° |
| 2026-05-07 20:08 | 30.07221 | -12.15687 | 35993 ft | 518 kts | 32° |
| 2026-05-07 20:09 | 30.12838 | -12.10462 | 36005 ft | 518 kts | 32° |
| 2026-05-07 20:10 | 30.21265 | -12.02617 | 35997 ft | 518 kts | 32° |
| 2026-05-07 20:10 | 30.26879 | -11.97393 | 36013 ft | 518 kts | 32° |
| 2026-05-07 20:11 | 30.32481 | -11.92152 | 36018 ft | 518 kts | 32° |
| 2026-05-07 20:11 | 30.38073 | -11.86902 | 36020 ft | 517 kts | 32° |
| 2026-05-07 20:12 | 30.43630 | -11.81690 | 36028 ft | 519 kts | 32° |
| 2026-05-07 20:12 | 30.49244 | -11.76426 | 36007 ft | 519 kts | 32° |
| 2026-05-07 20:13 | 30.54866 | -11.71148 | 35993 ft | 520 kts | 32° |
| 2026-05-07 20:13 | 30.60487 | -11.65848 | 36003 ft | 521 kts | 32° |
| 2026-05-07 20:14 | 30.66110 | -11.60535 | 36010 ft | 521 kts | 32° |
| 2026-05-07 20:14 | 30.71737 | -11.55223 | 35999 ft | 521 kts | 32° |
| 2026-05-07 20:15 | 30.77374 | -11.49905 | 36015 ft | 523 kts | 32° |
| 2026-05-07 20:15 | 30.83018 | -11.44556 | 35997 ft | 524 kts | 33° |
| 2026-05-07 20:16 | 30.88667 | -11.39190 | 35997 ft | 524 kts | 33° |
| 2026-05-07 20:16 | 30.94317 | -11.33815 | 35996 ft | 525 kts | 33° |
| 2026-05-07 20:17 | 30.99973 | -11.28431 | 35996 ft | 525 kts | 33° |
| 2026-05-07 20:17 | 31.05621 | -11.23040 | 36033 ft | 525 kts | 33° |
| 2026-05-07 20:18 | 31.11274 | -11.17643 | 36016 ft | 525 kts | 33° |
| 2026-05-07 20:18 | 31.16932 | -11.12233 | 36002 ft | 526 kts | 33° |
| 2026-05-07 20:19 | 31.22588 | -11.06809 | 36004 ft | 526 kts | 33° |
| 2026-05-07 20:19 | 31.28249 | -11.01375 | 36004 ft | 526 kts | 33° |
| 2026-05-07 20:20 | 31.33872 | -10.95975 | 36042 ft | 527 kts | 33° |
| 2026-05-07 20:20 | 31.39536 | -10.90517 | 36008 ft | 528 kts | 33° |
| 2026-05-07 20:21 | 31.45198 | -10.85050 | 36008 ft | 528 kts | 33° |
| 2026-05-07 20:21 | 31.50863 | -10.79584 | 36007 ft | 528 kts | 33° |
| 2026-05-07 20:22 | 31.56529 | -10.74109 | 36007 ft | 528 kts | 34° |
| 2026-05-07 20:22 | 31.62183 | -10.68621 | 36007 ft | 528 kts | 34° |
| 2026-05-07 20:23 | 31.67849 | -10.63116 | 35999 ft | 529 kts | 34° |
| 2026-05-07 20:23 | 31.73525 | -10.57610 | 35995 ft | 529 kts | 34° |
| 2026-05-07 20:24 | 31.79197 | -10.52097 | 35993 ft | 529 kts | 34° |
| 2026-05-07 20:24 | 31.84858 | -10.46569 | 36010 ft | 529 kts | 34° |
| 2026-05-07 20:25 | 31.90514 | -10.41037 | 36009 ft | 528 kts | 34° |
| 2026-05-07 20:25 | 31.96167 | -10.35502 | 36002 ft | 528 kts | 34° |
| 2026-05-07 20:26 | 32.01820 | -10.29964 | 35996 ft | 529 kts | 34° |
| 2026-05-07 20:26 | 32.07475 | -10.24414 | 35996 ft | 529 kts | 34° |
| 2026-05-07 20:27 | 32.13133 | -10.18848 | 35979 ft | 529 kts | 34° |
| 2026-05-07 20:27 | 32.18779 | -10.13284 | 36002 ft | 529 kts | 35° |
| 2026-05-07 20:28 | 32.24415 | -10.07710 | 36011 ft | 528 kts | 35° |
| 2026-05-07 20:28 | 32.30045 | -10.02146 | 35995 ft | 527 kts | 35° |
| 2026-05-07 20:29 | 32.35639 | -9.96617 | 35993 ft | 528 kts | 35° |
| 2026-05-07 20:29 | 32.41269 | -9.91040 | 35994 ft | 528 kts | 35° |
| 2026-05-07 20:30 | 32.46895 | -9.85445 | 35999 ft | 528 kts | 35° |
| 2026-05-07 20:30 | 32.52520 | -9.79840 | 36024 ft | 528 kts | 36° |
| 2026-05-07 20:31 | 32.58136 | -9.74241 | 36017 ft | 527 kts | 36° |
| 2026-05-07 20:31 | 32.63744 | -9.68643 | 36005 ft | 527 kts | 36° |
| 2026-05-07 20:32 | 32.69346 | -9.63043 | 36005 ft | 526 kts | 36° |
| 2026-05-07 20:32 | 32.74945 | -9.57440 | 36002 ft | 526 kts | 36° |
| 2026-05-07 20:33 | 32.80541 | -9.51831 | 36036 ft | 526 kts | 36° |
| 2026-05-07 20:33 | 32.86098 | -9.46247 | 36014 ft | 527 kts | 36° |
| 2026-05-07 20:34 | 32.91716 | -9.40583 | 36008 ft | 526 kts | 37° |
| 2026-05-07 20:34 | 32.97248 | -9.34991 | 36016 ft | 525 kts | 37° |
| 2026-05-07 20:35 | 33.02817 | -9.29371 | 36014 ft | 524 kts | 36° |
| 2026-05-07 20:35 | 33.08381 | -9.23753 | 36009 ft | 524 kts | 37° |
| 2026-05-07 20:36 | 33.13929 | -9.18121 | 36006 ft | 524 kts | 37° |
| 2026-05-07 20:36 | 33.19478 | -9.12485 | 36002 ft | 524 kts | 37° |
| 2026-05-07 20:37 | 33.25020 | -9.06835 | 35998 ft | 523 kts | 37° |
| 2026-05-07 20:37 | 33.30549 | -9.01194 | 36009 ft | 522 kts | 37° |
| 2026-05-07 20:38 | 33.36071 | -8.95568 | 36029 ft | 521 kts | 37° |
| 2026-05-07 20:38 | 33.41575 | -8.89932 | 36009 ft | 521 kts | 37° |
| 2026-05-07 20:39 | 33.47080 | -8.84289 | 36007 ft | 521 kts | 37° |
| 2026-05-07 20:39 | 33.52584 | -8.78648 | 36002 ft | 521 kts | 37° |
| 2026-05-07 20:40 | 33.58089 | -8.72996 | 35998 ft | 521 kts | 37° |
| 2026-05-07 20:40 | 33.63582 | -8.67337 | 35995 ft | 520 kts | 37° |
| 2026-05-07 20:41 | 33.69024 | -8.61717 | 36001 ft | 519 kts | 37° |
| 2026-05-07 20:41 | 33.74490 | -8.56070 | 36001 ft | 518 kts | 37° |
| 2026-05-07 20:42 | 33.79954 | -8.50411 | 36001 ft | 518 kts | 38° |
| 2026-05-07 20:42 | 33.85412 | -8.44745 | 35998 ft | 518 kts | 37° |
| 2026-05-07 20:43 | 33.90877 | -8.39079 | 35999 ft | 519 kts | 38° |
| 2026-05-07 20:43 | 33.96340 | -8.33404 | 36002 ft | 519 kts | 38° |
| 2026-05-07 20:44 | 34.01793 | -8.27718 | 36006 ft | 518 kts | 38° |
| 2026-05-07 20:44 | 34.07234 | -8.22027 | 36005 ft | 518 kts | 38° |
| 2026-05-07 20:45 | 34.12667 | -8.16333 | 36006 ft | 517 kts | 38° |
| 2026-05-07 20:45 | 34.18101 | -8.10639 | 36004 ft | 517 kts | 38° |
| 2026-05-07 20:46 | 34.23537 | -8.04937 | 36021 ft | 517 kts | 38° |
| 2026-05-07 20:46 | 34.28966 | -7.99225 | 36010 ft | 517 kts | 38° |
| 2026-05-07 20:47 | 34.34394 | -7.93507 | 36004 ft | 517 kts | 38° |
| 2026-05-07 20:47 | 34.39819 | -7.87780 | 36000 ft | 518 kts | 38° |
| 2026-05-07 20:48 | 34.45242 | -7.82041 | 36001 ft | 518 kts | 38° |
| 2026-05-07 20:48 | 34.50665 | -7.76299 | 36030 ft | 518 kts | 39° |
| 2026-05-07 20:49 | 34.56080 | -7.70540 | 36021 ft | 518 kts | 39° |
| 2026-05-07 20:49 | 34.61492 | -7.64779 | 36011 ft | 517 kts | 39° |
| 2026-05-07 20:50 | 34.66900 | -7.59018 | 35993 ft | 517 kts | 38° |
| 2026-05-07 20:50 | 34.72303 | -7.53256 | 35997 ft | 516 kts | 39° |
| 2026-05-07 20:51 | 34.77657 | -7.47530 | 36028 ft | 516 kts | 39° |
| 2026-05-07 20:51 | 34.83043 | -7.41766 | 36015 ft | 516 kts | 39° |
| 2026-05-07 20:52 | 34.88424 | -7.35994 | 36001 ft | 515 kts | 39° |
| 2026-05-07 20:52 | 34.93798 | -7.30217 | 35998 ft | 515 kts | 39° |
| 2026-05-07 20:53 | 34.99172 | -7.24426 | 35994 ft | 515 kts | 39° |
| 2026-05-07 20:53 | 35.04545 | -7.18636 | 36011 ft | 515 kts | 39° |
| 2026-05-07 20:54 | 35.09908 | -7.12841 | 36003 ft | 514 kts | 39° |
| 2026-05-07 20:54 | 35.15259 | -7.07043 | 36001 ft | 514 kts | 39° |
| 2026-05-07 20:55 | 35.20602 | -7.01246 | 36000 ft | 514 kts | 39° |
| 2026-05-07 20:55 | 35.25043 | -6.96425 | 35991 ft | 513 kts | 39° |
| 2026-05-07 20:56 | 35.30379 | -6.90623 | 35993 ft | 513 kts | 39° |
| 2026-05-07 20:56 | 35.35713 | -6.84805 | 36006 ft | 513 kts | 39° |
| 2026-05-07 20:57 | 35.41031 | -6.78987 | 35991 ft | 512 kts | 39° |
| 2026-05-07 20:57 | 35.46334 | -6.73180 | 35995 ft | 511 kts | 39° |
| 2026-05-07 20:58 | 35.51631 | -6.67382 | 35990 ft | 510 kts | 39° |
| 2026-05-07 20:58 | 35.56878 | -6.61617 | 35987 ft | 509 kts | 39° |
| 2026-05-07 20:59 | 35.62147 | -6.55815 | 35985 ft | 508 kts | 39° |
| 2026-05-07 20:59 | 35.67409 | -6.50018 | 35971 ft | 508 kts | 39° |
| 2026-05-07 20:59 | 35.70042 | -6.47114 | 35734 ft | 508 kts | 39° |
| 2026-05-07 21:00 | 35.72675 | -6.44206 | 35039 ft | 511 kts | 39° |
| 2026-05-07 21:00 | 35.75339 | -6.41260 | 34155 ft | 518 kts | 40° |
| 2026-05-07 21:00 | 35.78035 | -6.38274 | 33094 ft | 525 kts | 40° |
| 2026-05-07 21:00 | 35.80742 | -6.35269 | 32581 ft | 520 kts | 40° |
| 2026-05-07 21:01 | 35.83456 | -6.32353 | 31977 ft | 515 kts | 35° |
| 2026-05-07 21:01 | 35.86359 | -6.29808 | 31458 ft | 509 kts | 32° |
| 2026-05-07 21:01 | 35.89261 | -6.27334 | 30907 ft | 506 kts | 32° |
| 2026-05-07 21:01 | 35.92142 | -6.24873 | 30366 ft | 502 kts | 32° |
| 2026-05-07 21:02 | 35.95000 | -6.22427 | 29780 ft | 498 kts | 32° |
| 2026-05-07 21:02 | 35.97835 | -6.20000 | 29248 ft | 493 kts | 32° |
| 2026-05-07 21:02 | 36.00637 | -6.17604 | 28709 ft | 488 kts | 32° |
| 2026-05-07 21:02 | 36.03409 | -6.15229 | 28192 ft | 482 kts | 32° |
| 2026-05-07 21:03 | 36.06151 | -6.12871 | 27680 ft | 478 kts | 32° |
| 2026-05-07 21:03 | 36.08866 | -6.10533 | 27168 ft | 473 kts | 32° |
| 2026-05-07 21:03 | 36.11551 | -6.08219 | 26684 ft | 469 kts | 32° |
| 2026-05-07 21:03 | 36.14213 | -6.05926 | 26194 ft | 464 kts | 32° |
| 2026-05-07 21:04 | 36.16850 | -6.03658 | 25725 ft | 459 kts | 32° |
| 2026-05-07 21:04 | 36.19464 | -6.01410 | 25269 ft | 456 kts | 32° |
| 2026-05-07 21:04 | 36.22061 | -5.99191 | 24815 ft | 452 kts | 30° |
| 2026-05-07 21:04 | 36.24803 | -5.97366 | 24372 ft | 444 kts | 19° |
| 2026-05-07 21:05 | 36.27692 | -5.96121 | 23988 ft | 436 kts | 12° |
| 2026-05-07 21:05 | 36.30587 | -5.95042 | 23555 ft | 434 kts | 12° |
| 2026-05-07 21:05 | 36.33469 | -5.93959 | 23061 ft | 431 kts | 12° |
| 2026-05-07 21:05 | 36.36326 | -5.92879 | 22639 ft | 427 kts | 13° |
| 2026-05-07 21:06 | 36.39154 | -5.91812 | 22175 ft | 423 kts | 13° |
| 2026-05-07 21:06 | 36.41960 | -5.90751 | 21713 ft | 420 kts | 13° |
| 2026-05-07 21:06 | 36.44740 | -5.89695 | 21267 ft | 416 kts | 13° |
| 2026-05-07 21:06 | 36.47500 | -5.88648 | 20790 ft | 413 kts | 13° |
| 2026-05-07 21:07 | 36.50239 | -5.87610 | 20327 ft | 410 kts | 14° |
| 2026-05-07 21:07 | 36.52965 | -5.86578 | 19849 ft | 408 kts | 14° |
| 2026-05-07 21:07 | 36.55637 | -5.85568 | 19386 ft | 405 kts | 14° |
| 2026-05-07 21:07 | 36.58327 | -5.84551 | 18916 ft | 403 kts | 14° |
| 2026-05-07 21:08 | 36.61001 | -5.83539 | 18464 ft | 401 kts | 15° |
| 2026-05-07 21:08 | 36.63665 | -5.82527 | 17930 ft | 400 kts | 15° |
| 2026-05-07 21:08 | 36.66311 | -5.81517 | 17459 ft | 396 kts | 15° |
| 2026-05-07 21:08 | 36.68932 | -5.80514 | 16966 ft | 392 kts | 15° |
| 2026-05-07 21:09 | 36.71532 | -5.79521 | 16505 ft | 389 kts | 15° |
| 2026-05-07 21:09 | 36.74108 | -5.78539 | 16038 ft | 386 kts | 16° |
| 2026-05-07 21:09 | 36.76665 | -5.77564 | 15571 ft | 383 kts | 16° |
| 2026-05-07 21:09 | 36.79203 | -5.76597 | 15103 ft | 380 kts | 16° |
| 2026-05-07 21:10 | 36.81722 | -5.75635 | 14634 ft | 378 kts | 16° |
| 2026-05-07 21:10 | 36.84225 | -5.74675 | 14170 ft | 375 kts | 16° |
| 2026-05-07 21:10 | 36.86714 | -5.73721 | 13702 ft | 373 kts | 17° |
| 2026-05-07 21:10 | 36.89186 | -5.72774 | 13208 ft | 370 kts | 17° |
| 2026-05-07 21:11 | 36.91631 | -5.71836 | 12743 ft | 366 kts | 17° |
| 2026-05-07 21:11 | 36.94053 | -5.70908 | 12282 ft | 362 kts | 17° |
| 2026-05-07 21:11 | 36.98829 | -5.69080 | 11389 ft | 356 kts | 17° |
| 2026-05-07 21:12 | 37.01187 | -5.68177 | 10936 ft | 353 kts | 17° |
| 2026-05-07 21:12 | 37.03527 | -5.67279 | 10499 ft | 350 kts | 17° |
| 2026-05-07 21:12 | 37.05839 | -5.66391 | 10219 ft | 343 kts | 17° |
| 2026-05-07 21:12 | 37.08070 | -5.65533 | 10088 ft | 325 kts | 17° |
| 2026-05-07 21:13 | 37.10171 | -5.64721 | 9816 ft | 309 kts | 17° |
| 2026-05-07 21:13 | 37.12198 | -5.63936 | 9310 ft | 302 kts | 18° |
| 2026-05-07 21:13 | 37.14180 | -5.63169 | 8906 ft | 297 kts | 18° |
| 2026-05-07 21:13 | 37.16142 | -5.62411 | 8469 ft | 294 kts | 18° |
| 2026-05-07 21:14 | 37.18140 | -5.61848 | 8004 ft | 297 kts | 6° |
| 2026-05-07 21:14 | 37.20200 | -5.61712 | 7624 ft | 297 kts | 3° |
| 2026-05-07 21:14 | 37.22266 | -5.61579 | 7289 ft | 293 kts | 4° |
| 2026-05-07 21:14 | 37.24263 | -5.61441 | 6733 ft | 290 kts | 4° |
| 2026-05-07 21:15 | 37.26268 | -5.61296 | 6167 ft | 287 kts | 4° |
| 2026-05-07 21:15 | 37.28252 | -5.61152 | 5624 ft | 283 kts | 4° |
| 2026-05-07 21:15 | 37.30200 | -5.61012 | 5164 ft | 277 kts | 4° |
| 2026-05-07 21:15 | 37.32105 | -5.60879 | 4722 ft | 272 kts | 3° |
| 2026-05-07 21:16 | 37.33975 | -5.60751 | 4277 ft | 267 kts | 3° |
| 2026-05-07 21:16 | 37.35808 | -5.60629 | 3837 ft | 261 kts | 1° |
| 2026-05-07 21:16 | 37.37551 | -5.60868 | 3665 ft | 242 kts | 341° |
| 2026-05-07 21:16 | 37.39021 | -5.61653 | 3601 ft | 220 kts | 326° |
| 2026-05-07 21:17 | 37.40185 | -5.62799 | 3496 ft | 208 kts | 311° |
| 2026-05-07 21:17 | 37.41053 | -5.64213 | 3353 ft | 202 kts | 296° |
| 2026-05-07 21:17 | 37.41607 | -5.65810 | 3219 ft | 198 kts | 282° |
| 2026-05-07 21:17 | 37.41835 | -5.67498 | 3137 ft | 195 kts | 269° |
| 2026-05-07 21:18 | 37.41839 | -5.69200 | 2935 ft | 194 kts | 267° |
| 2026-05-07 21:18 | 37.41836 | -5.70883 | 2713 ft | 190 kts | 266° |
| 2026-05-07 21:18 | 37.41834 | -5.72518 | 2452 ft | 184 kts | 268° |
| 2026-05-07 21:18 | 37.41832 | -5.74082 | 2204 ft | 174 kts | 267° |
| 2026-05-07 21:19 | 37.41829 | -5.75546 | 1992 ft | 162 kts | 267° |
| 2026-05-07 21:19 | 37.41826 | -5.76937 | 1786 ft | 157 kts | 268° |
| 2026-05-07 21:19 | 37.41823 | -5.78315 | 1566 ft | 158 kts | 268° |
| 2026-05-07 21:19 | 37.41820 | -5.79692 | 1347 ft | 154 kts | 267° |
| 2026-05-07 21:20 | 37.41818 | -5.80965 | 1148 ft | 141 kts | 268° |
| 2026-05-07 21:20 | 37.41815 | -5.82171 | 965 ft | 137 kts | 268° |
| 2026-05-07 21:20 | 37.41811 | -5.83370 | 794 ft | 136 kts | 268° |
| 2026-05-07 21:20 | 37.41806 | -5.84558 | 612 ft | 138 kts | 269° |
| 2026-05-07 21:21 | 37.41807 | -5.85763 | 425 ft | 138 kts | 268° |
| 2026-05-07 21:21 | 37.41793 | -5.86959 | 219 ft | 136 kts | 267° |
| 2026-05-07 21:21 | 37.41793 | -5.88136 | 109 ft | 127 kts | 269° |
| 2026-05-07 21:21 | 37.41792 | -5.89052 | 102 ft | 80 kts | 271° |
| 2026-05-07 21:22 | 37.41793 | -5.89605 | 98 ft | 44 kts | 270° |
| 2026-05-07 21:22 | 37.41847 | -5.89799 | 97 ft | 17 kts | 330° |
| 2026-05-07 21:22 | 37.41911 | -5.89836 | 99 ft | 10 kts | 336° |
| 2026-05-07 21:22 | 37.41960 | -5.89861 | 98 ft | 6 kts | 338° |
| 2026-05-07 21:23 | 37.42003 | -5.89884 | 97 ft | 8 kts | 338° |
| 2026-05-07 21:23 | 37.42043 | -5.89904 | 95 ft | 7 kts | 338° |
| 2026-05-07 21:23 | 37.42097 | -5.89931 | 94 ft | 9 kts | 344° |
| 2026-05-07 21:23 | 37.42145 | -5.89904 | 94 ft | 8 kts | 41° |
| 2026-05-07 21:24 | 37.42173 | -5.89889 | 96 ft | 5 kts | 347° |
| 2026-05-07 21:24 | 37.42192 | -5.89917 | 94 ft | 3 kts | 308° |
| 2026-05-07 21:24 | 37.42210 | -5.89942 | 94 ft | 3 kts | 313° |
| 2026-05-07 21:24 | 37.42217 | -5.89951 | 94 ft | 0 kts | 314° |